KLAW

Lawton-Fort Sill Regional Airport

Lawton, Oklahoma, USA
METAR KLAW 212253Z 10008KT 10SM CLR 32/17 A3011 RMK AO2 SLP184 T03170167
Observed Flight Rules
Aug-21 @ 22:53 UTC (55 minutes ago) Visual Flight Rules
Wind Visibility Clouds
100° at 8 knots 10 miles
  • Clear skies
Temperatures Readings
Current 32°C / 90°F
Dewpoint 17°C / 63°F
Humidity 41%
Altimeter 30.11" Hg
Pressure 1018.4 hPa
Elevation 337
METAR KLAW 212253Z 10008KT 10SM CLR 32/17 A3011 RMK AO2 SLP184 T03170167
Observed Flight Rules
Aug-21 @ 22:53 UTC
(55 minutes ago)
VFR
Wind Visibility
100° at 8 knots 10 miles
Clouds
  • Clear skies
Temperature Dewpoint
32°C / 90°F 17°C / 63°F
Humidity Altimeter Pressure
41% 30.11" Hg 1018.4 hPa